Time;durP1;ratioP1;P1;durP2;ratioP2;P2;SDS_P1;SDS_P2;PMS_P1;PMS_P2;Temp;Humidity;BMP_temperature;BMP_pressure;BME280_temperature;BME280_humidity;BME280_pressure;Samples;Min_cycle;Max_cycle;Signal;HPM_P1;HPM_P2
2023/01/23 00:00:37;;;;;;;9.47;6.73;;;4.20;99.90;;;;;;7390756;19;20155;-72
2023/01/23 00:03:03;;;;;;;9.27;6.80;;;4.20;99.90;;;;;;7387688;19;20118;-72
2023/01/23 00:05:28;;;;;;;9.77;6.63;;;4.20;99.90;;;;;;7390732;19;20135;-72
2023/01/23 00:07:55;;;;;;;9.67;6.50;;;4.20;99.90;;;;;;7389517;19;20142;-72
2023/01/23 00:10:21;;;;;;;10.07;6.57;;;4.20;99.90;;;;;;7390588;19;20138;-72
2023/01/23 00:12:52;;;;;;;9.93;6.43;;;4.20;99.90;;;;;;7389868;19;20130;-72
2023/01/23 00:15:18;;;;;;;10.67;7.50;;;4.10;99.90;;;;;;7387761;19;20161;-73
2023/01/23 00:17:44;;;;;;;8.83;6.40;;;4.10;99.90;;;;;;7390163;19;20139;-73
2023/01/23 00:20:11;;;;;;;10.67;7.10;;;4.20;99.90;;;;;;7388464;19;20138;-72
2023/01/23 00:22:37;;;;;;;8.40;6.50;;;4.20;99.90;;;;;;7389943;19;20536;-72
2023/01/23 00:25:04;;;;;;;9.70;6.60;;;4.20;99.90;;;;;;7387607;19;20146;-72
2023/01/23 00:27:30;;;;;;;10.53;7.07;;;4.20;99.90;;;;;;7388926;19;20130;-72
2023/01/23 00:29:56;;;;;;;10.17;7.40;;;4.20;99.90;;;;;;7386443;19;20169;-72
2023/01/23 00:32:22;;;;;;;9.77;6.17;;;4.20;99.90;;;;;;7386264;19;20622;-72
2023/01/23 00:34:48;;;;;;;9.13;6.67;;;4.30;99.90;;;;;;7386057;19;20173;-72
2023/01/23 00:37:15;;;;;;;8.97;6.17;;;4.20;99.90;;;;;;7385278;19;20626;-73
2023/01/23 00:39:41;;;;;;;10.60;6.90;;;4.20;99.90;;;;;;7387790;19;20174;-72
2023/01/23 00:42:07;;;;;;;10.23;7.07;;;4.20;99.90;;;;;;7393458;19;20139;-73
2023/01/23 00:44:33;;;;;;;9.67;6.87;;;4.20;99.90;;;;;;7403964;19;20126;-72
2023/01/23 00:46:59;;;;;;;9.70;6.70;;;4.30;99.90;;;;;;7402119;19;20579;-71
2023/01/23 00:49:25;;;;;;;10.90;6.83;;;4.20;99.90;;;;;;7404179;19;20151;-73
2023/01/23 00:51:53;;;;;;;8.60;6.57;;;4.20;99.90;;;;;;7403693;19;20130;-72
2023/01/23 00:54:20;;;;;;;10.23;6.83;;;4.20;99.90;;;;;;7401668;19;20138;-72
2023/01/23 00:56:46;;;;;;;9.73;6.23;;;4.20;99.90;;;;;;7399905;19;20134;-71
2023/01/23 00:59:13;;;;;;;9.43;6.67;;;4.10;99.90;;;;;;7403410;19;20134;-71
2023/01/23 01:01:39;;;;;;;9.87;6.73;;;4.10;99.90;;;;;;7397847;19;20150;-71
2023/01/23 01:04:05;;;;;;;9.70;6.63;;;4.10;99.90;;;;;;7400912;19;20148;-73
2023/01/23 01:06:31;;;;;;;9.50;6.43;;;4.10;99.90;;;;;;7400333;19;20147;-73
2023/01/23 01:08:59;;;;;;;9.60;6.47;;;4.10;99.90;;;;;;7401254;19;20141;-71
2023/01/23 01:11:25;;;;;;;9.87;6.10;;;4.10;99.90;;;;;;7398703;19;20231;-73
2023/01/23 01:13:52;;;;;;;9.23;6.13;;;4.10;99.90;;;;;;7399810;19;20171;-72
2023/01/23 01:16:17;;;;;;;10.93;6.87;;;4.10;99.90;;;;;;7396738;19;20147;-71
2023/01/23 01:18:43;;;;;;;9.70;6.43;;;4.10;99.90;;;;;;7401914;19;20535;-73
2023/01/23 01:21:13;;;;;;;9.27;6.57;;;4.10;99.90;;;;;;7400325;19;20162;-71
2023/01/23 01:23:40;;;;;;;8.70;6.63;;;4.20;99.90;;;;;;7399765;19;20123;-73
2023/01/23 01:26:06;;;;;;;8.70;6.17;;;4.10;99.90;;;;;;7402460;19;20142;-73
2023/01/23 01:28:34;;;;;;;10.10;6.50;;;4.10;99.90;;;;;;7398952;19;20145;-73
2023/01/23 01:31:06;;;;;;;10.23;7.07;;;4.10;99.90;;;;;;7400855;19;20599;-72
2023/01/23 01:33:33;;;;;;;9.27;6.47;;;4.10;99.90;;;;;;7398742;19;20486;-72
2023/01/23 01:36:00;;;;;;;9.27;6.30;;;4.20;99.90;;;;;;7398853;19;20139;-73
2023/01/23 01:38:26;;;;;;;10.70;6.40;;;4.20;99.90;;;;;;7400082;19;20162;-71
2023/01/23 01:40:52;;;;;;;8.40;5.90;;;4.10;99.90;;;;;;7402734;19;20142;-72
2023/01/23 01:43:21;;;;;;;9.77;6.77;;;4.10;99.90;;;;;;7400223;19;20158;-73
2023/01/23 01:46:06;;;;;;;10.60;6.67;;;4.20;99.90;;;;;;7399816;19;20158;-71
2023/01/23 01:48:47;;;;;;;8.63;6.10;;;3.90;99.90;;;;;;7401813;19;20218;-72
2023/01/23 01:51:38;;;;;;;8.30;5.80;;;4.10;99.90;;;;;;7399408;19;20163;-72
2023/01/23 01:54:13;;;;;;;8.93;6.47;;;4.10;99.90;;;;;;7386213;19;20506;-72
2023/01/23 01:56:56;;;;;;;7.93;5.53;;;4.10;99.90;;;;;;7393603;19;20454;-72
2023/01/23 01:59:25;;;;;;;9.07;5.87;;;4.10;99.90;;;;;;7393682;19;20153;-72
2023/01/23 02:01:56;;;;;;;9.23;6.43;;;3.90;99.90;;;;;;7393003;19;20158;-74
2023/01/23 02:04:22;;;;;;;9.00;6.30;;;3.90;99.90;;;;;;7390001;19;20178;-75
2023/01/23 02:06:50;;;;;;;7.97;5.97;;;4.10;99.90;;;;;;7391307;19;20180;-75
2023/01/23 02:09:23;;;;;;;11.50;6.40;;;4.10;99.90;;;;;;7402371;19;20139;-72
2023/01/23 02:11:50;;;;;;;10.57;6.60;;;4.20;99.90;;;;;;7398249;19;20162;-73
2023/01/23 02:14:16;;;;;;;7.77;5.97;;;4.20;99.90;;;;;;7393576;19;20158;-73
2023/01/23 02:16:48;;;;;;;9.07;6.33;;;4.20;99.90;;;;;;7392884;19;20135;-75
2023/01/23 02:20:02;;;;;;;8.30;5.80;;;4.10;99.90;;;;;;7392641;19;20166;-74
2023/01/23 02:23:00;;;;;;;8.80;5.83;;;4.10;99.90;;;;;;7389569;19;20674;-75
2023/01/23 02:25:44;;;;;;;8.77;5.97;;;4.00;99.90;;;;;;7389791;19;20223;-74
2023/01/23 02:28:11;;;;;;;8.93;5.90;;;4.10;99.90;;;;;;7388530;19;20178;-74
2023/01/23 02:30:39;;;;;;;7.60;5.67;;;4.10;99.90;;;;;;7392812;19;20131;-73
2023/01/23 02:33:23;;;;;;;10.30;5.83;;;4.10;99.90;;;;;;7392573;19;20164;-74
2023/01/23 02:35:49;;;;;;;9.40;6.83;;;4.10;99.90;;;;;;7389865;19;20163;-74
2023/01/23 02:38:19;;;;;;;9.10;6.83;;;3.90;99.90;;;;;;7390239;19;20127;-74
2023/01/23 02:40:45;;;;;;;10.43;7.23;;;3.90;99.90;;;;;;7391018;19;20137;-72
2023/01/23 02:43:20;;;;;;;10.00;7.10;;;4.00;99.90;;;;;;7389131;19;20146;-74
2023/01/23 02:45:46;;;;;;;9.70;7.07;;;4.00;99.90;;;;;;7387930;19;20147;-74
2023/01/23 02:48:12;;;;;;;9.03;6.53;;;3.90;99.90;;;;;;7391984;19;20476;-74
2023/01/23 02:50:38;;;;;;;8.83;5.90;;;3.80;99.90;;;;;;7393132;19;20224;-74
2023/01/23 02:53:04;;;;;;;9.17;6.73;;;3.90;99.90;;;;;;7390146;19;20576;-73
2023/01/23 02:55:32;;;;;;;9.30;6.83;;;3.60;99.90;;;;;;7391718;19;20154;-73
2023/01/23 03:00:46;;;;;;;8.77;6.47;;;3.60;99.90;;;;;;7389857;19;20589;-74
2023/01/23 03:03:12;;;;;;;9.33;6.77;;;3.50;99.90;;;;;;7388182;19;20155;-73
2023/01/23 03:05:38;;;;;;;10.17;6.60;;;3.60;99.90;;;;;;7392741;19;20162;-74
2023/01/23 03:08:04;;;;;;;9.80;6.27;;;3.90;99.90;;;;;;7389422;19;20516;-73
2023/01/23 03:10:30;;;;;;;9.97;6.70;;;4.10;99.90;;;;;;7392952;19;20206;-74
2023/01/23 03:13:06;;;;;;;11.87;6.87;;;3.90;99.90;;;;;;7390034;19;20169;-73
2023/01/23 03:15:33;;;;;;;10.13;6.43;;;3.90;99.90;;;;;;7388365;19;20142;-74
2023/01/23 03:17:59;;;;;;;9.87;6.50;;;4.00;99.90;;;;;;7390432;19;20143;-74
2023/01/23 03:20:26;;;;;;;9.37;6.70;;;4.00;99.90;;;;;;7388699;19;20134;-73
2023/01/23 03:22:52;;;;;;;8.27;5.93;;;4.00;99.90;;;;;;7389683;19;20218;-73
2023/01/23 03:25:19;;;;;;;9.93;6.83;;;4.00;99.90;;;;;;7390557;19;20149;-74
2023/01/23 03:27:44;;;;;;;10.07;6.77;;;4.10;99.90;;;;;;7387963;19;20167;-76
2023/01/23 03:30:15;;;;;;;11.10;7.03;;;4.10;99.90;;;;;;7387947;19;20150;-74
2023/01/23 03:32:42;;;;;;;10.00;7.67;;;4.10;99.90;;;;;;7391724;19;20210;-73
2023/01/23 03:35:09;;;;;;;10.10;6.80;;;4.00;99.90;;;;;;7389985;19;20156;-74
2023/01/23 03:37:35;;;;;;;10.23;7.03;;;4.00;99.90;;;;;;7388606;19;20139;-74
2023/01/23 03:42:46;;;;;;;12.27;7.63;;;4.20;99.90;;;;;;7390716;19;20469;-74
2023/01/23 03:45:12;;;;;;;10.00;6.87;;;4.20;99.90;;;;;;7389332;19;20197;-74
2023/01/23 03:47:38;;;;;;;9.83;6.90;;;4.10;99.90;;;;;;7388408;19;20572;-74
2023/01/23 03:50:04;;;;;;;10.63;7.33;;;4.00;99.90;;;;;;7390752;19;20138;-74
2023/01/23 03:52:31;;;;;;;9.63;6.83;;;3.90;99.90;;;;;;7387907;19;20158;-75
2023/01/23 03:54:56;;;;;;;11.37;6.70;;;3.70;99.90;;;;;;7390172;19;20135;-72
2023/01/23 03:57:22;;;;;;;9.17;6.50;;;3.70;99.90;;;;;;7389427;19;20147;-74
2023/01/23 03:59:48;;;;;;;9.20;6.70;;;3.80;99.90;;;;;;7388811;19;20178;-74
2023/01/23 04:02:14;;;;;;;9.07;7.37;;;3.90;99.90;;;;;;7391122;19;20244;-74
2023/01/23 04:04:40;;;;;;;10.10;7.47;;;4.00;99.90;;;;;;7387455;19;20142;-73
2023/01/23 04:07:06;;;;;;;9.80;6.73;;;4.10;99.90;;;;;;7388570;19;20159;-73
2023/01/23 04:09:31;;;;;;;10.37;7.17;;;4.20;99.90;;;;;;7388977;19;20605;-73
2023/01/23 04:11:58;;;;;;;10.50;7.43;;;4.10;99.90;;;;;;7389155;19;20134;-73
2023/01/23 04:14:25;;;;;;;11.60;7.20;;;4.10;99.90;;;;;;7388832;19;20600;-74
2023/01/23 04:16:52;;;;;;;10.77;7.10;;;4.20;99.90;;;;;;7384678;19;20147;-73
2023/01/23 04:19:18;;;;;;;10.50;7.07;;;4.20;99.90;;;;;;7386996;19;20170;-73
2023/01/23 04:21:48;;;;;;;11.13;7.60;;;4.30;99.90;;;;;;7385358;19;20146;-74
2023/01/23 04:24:15;;;;;;;10.23;7.27;;;4.20;99.90;;;;;;7388586;19;20555;-73
2023/01/23 04:26:40;;;;;;;9.27;6.43;;;3.60;99.90;;;;;;7390308;19;20163;-74
2023/01/23 04:29:06;;;;;;;9.70;6.87;;;3.50;99.90;;;;;;7391644;19;20148;-74
2023/01/23 04:31:32;;;;;;;9.87;7.33;;;3.60;99.90;;;;;;7379896;19;20139;-74
2023/01/23 04:33:58;;;;;;;11.30;7.80;;;3.90;99.90;;;;;;7385379;19;20167;-73
2023/01/23 04:36:23;;;;;;;9.60;6.93;;;3.70;99.90;;;;;;7387731;19;20135;-72
2023/01/23 04:38:49;;;;;;;10.50;7.23;;;3.80;99.90;;;;;;7388465;19;20629;-74
2023/01/23 04:41:23;;;;;;;12.77;8.93;;;3.70;99.90;;;;;;7386873;19;20602;-74
2023/01/23 04:46:15;;;;;;;10.83;7.30;;;4.10;99.90;;;;;;7388037;19;20553;-73
2023/01/23 04:48:41;;;;;;;10.70;7.27;;;4.10;99.90;;;;;;7387615;19;20159;-74
2023/01/23 04:51:06;;;;;;;13.03;7.60;;;4.00;99.90;;;;;;7387825;19;20134;-74
2023/01/23 04:53:32;;;;;;;9.63;7.20;;;4.20;99.90;;;;;;7385792;19;20122;-74
2023/01/23 04:55:59;;;;;;;12.47;8.03;;;4.20;99.90;;;;;;7383681;19;20603;-74
2023/01/23 04:58:24;;;;;;;12.80;8.27;;;4.20;99.90;;;;;;7388117;19;20144;-74
2023/01/23 05:00:50;;;;;;;13.23;7.73;;;4.10;99.90;;;;;;7385841;19;20147;-74
2023/01/23 05:03:16;;;;;;;12.33;7.80;;;4.10;99.90;;;;;;7388533;19;20131;-74
2023/01/23 05:05:43;;;;;;;10.90;8.30;;;4.20;99.90;;;;;;7391364;19;20123;-74
2023/01/23 05:08:12;;;;;;;12.83;9.00;;;4.00;99.90;;;;;;7388165;19;20198;-74
2023/01/23 05:10:38;;;;;;;13.53;8.17;;;4.10;99.90;;;;;;7388182;19;20135;-74
2023/01/23 05:13:04;;;;;;;11.73;7.80;;;4.10;99.90;;;;;;7382210;19;20587;-74
2023/01/23 05:15:31;;;;;;;11.53;7.97;;;4.10;99.90;;;;;;7385531;19;20145;-74
2023/01/23 05:17:57;;;;;;;11.43;8.17;;;4.20;99.90;;;;;;7386529;19;20123;-73
2023/01/23 05:20:23;;;;;;;12.03;7.33;;;4.30;99.90;;;;;;7387035;19;20134;-74
2023/01/23 05:22:52;;;;;;;12.27;7.87;;;4.30;99.90;;;;;;7384368;19;20178;-74
2023/01/23 05:25:23;;;;;;;12.47;7.83;;;4.30;99.90;;;;;;7386715;19;20155;-73
2023/01/23 05:27:49;;;;;;;11.07;7.30;;;4.10;99.90;;;;;;7384054;19;20130;-74
2023/01/23 05:30:16;;;;;;;10.47;8.20;;;4.10;99.90;;;;;;7390639;19;20134;-74
2023/01/23 05:32:41;;;;;;;11.93;7.70;;;4.10;99.90;;;;;;7396052;19;20130;-73
2023/01/23 05:35:09;;;;;;;10.40;7.03;;;4.00;99.90;;;;;;7391708;19;20133;-74
2023/01/23 05:37:35;;;;;;;14.27;8.30;;;4.10;99.90;;;;;;7395882;19;20154;-74
2023/01/23 05:40:01;;;;;;;11.83;8.07;;;4.20;99.90;;;;;;7392055;19;20146;-74
2023/01/23 05:42:27;;;;;;;14.90;8.67;;;4.20;99.90;;;;;;7393419;19;20150;-74
2023/01/23 05:44:53;;;;;;;10.97;7.27;;;4.20;99.90;;;;;;7392275;19;20159;-73
2023/01/23 05:47:19;;;;;;;12.00;7.87;;;4.30;99.90;;;;;;7392367;19;20159;-74
2023/01/23 05:49:44;;;;;;;9.97;7.50;;;4.40;99.90;;;;;;7392845;19;20134;-73
2023/01/23 05:52:11;;;;;;;12.07;7.80;;;4.30;99.90;;;;;;7391924;19;20474;-74
2023/01/23 05:54:37;;;;;;;11.87;7.90;;;4.30;99.90;;;;;;7393077;19;20131;-74
2023/01/23 05:57:03;;;;;;;12.43;8.43;;;4.30;99.90;;;;;;7393186;19;20148;-73
2023/01/23 05:59:29;;;;;;;12.17;8.67;;;4.30;99.90;;;;;;7391962;19;20123;-74
2023/01/23 06:01:55;;;;;;;11.37;7.67;;;4.30;99.90;;;;;;7391162;19;20628;-74
2023/01/23 06:04:21;;;;;;;12.63;8.07;;;4.30;99.90;;;;;;7389218;19;20158;-74
2023/01/23 06:06:47;;;;;;;11.63;8.53;;;4.30;99.90;;;;;;7393643;19;20495;-74
2023/01/23 06:09:12;;;;;;;12.57;8.17;;;4.30;99.90;;;;;;7391635;19;20139;-73
2023/01/23 06:11:38;;;;;;;11.67;7.80;;;4.40;99.90;;;;;;7393037;19;20131;-74
2023/01/23 06:14:04;;;;;;;15.73;7.93;;;4.30;99.90;;;;;;7391409;19;20162;-73
2023/01/23 06:16:30;;;;;;;12.67;7.93;;;4.40;99.90;;;;;;7391835;19;20576;-74
2023/01/23 06:18:56;;;;;;;13.60;8.67;;;4.30;99.90;;;;;;7391560;19;20151;-73
2023/01/23 06:21:22;;;;;;;12.37;8.00;;;4.30;99.90;;;;;;7392047;19;20172;-73
2023/01/23 06:23:48;;;;;;;13.27;7.60;;;4.20;99.90;;;;;;7382122;19;20135;-73
2023/01/23 06:26:14;;;;;;;12.53;8.23;;;4.20;99.90;;;;;;7390367;19;20135;-73
2023/01/23 06:28:40;;;;;;;12.93;8.10;;;4.30;99.90;;;;;;7386429;19;20147;-73
2023/01/23 06:31:08;;;;;;;13.80;9.00;;;4.20;99.90;;;;;;7387600;19;20162;-74
2023/01/23 06:33:33;;;;;;;12.63;8.17;;;4.20;99.90;;;;;;7386424;19;20512;-73
2023/01/23 06:36:01;;;;;;;11.47;8.00;;;4.10;99.90;;;;;;7384247;19;20134;-73
2023/01/23 06:38:28;;;;;;;11.60;8.20;;;4.10;99.90;;;;;;7387008;19;20139;-73
2023/01/23 06:40:54;;;;;;;12.00;8.00;;;4.20;99.90;;;;;;7385164;19;21100;-73
2023/01/23 06:43:20;;;;;;;10.30;7.33;;;4.20;99.90;;;;;;7385086;19;20143;-73
2023/01/23 06:45:46;;;;;;;14.87;9.03;;;4.20;99.90;;;;;;7387679;19;20139;-73
2023/01/23 06:48:12;;;;;;;14.37;8.50;;;4.20;99.90;;;;;;7388621;19;20131;-73
2023/01/23 06:50:39;;;;;;;12.17;7.83;;;4.10;99.90;;;;;;7387282;19;20139;-73
2023/01/23 06:53:05;;;;;;;11.43;6.87;;;4.10;99.90;;;;;;7388569;19;20126;-73
2023/01/23 06:55:32;;;;;;;11.90;8.10;;;4.20;99.90;;;;;;7378546;19;20157;-73
2023/01/23 06:57:58;;;;;;;11.93;7.10;;;4.20;99.90;;;;;;7387575;19;20145;-73
2023/01/23 07:00:25;;;;;;;13.20;9.95;;;4.30;99.90;;;;;;7398962;19;20348;-72
2023/01/23 07:02:51;;;;;;;12.23;7.80;;;4.10;99.90;;;;;;7392191;19;20131;-72
2023/01/23 07:05:21;;;;;;;12.27;8.60;;;4.30;99.90;;;;;;7390991;19;20165;-75
2023/01/23 07:07:46;;;;;;;11.43;7.70;;;4.40;99.90;;;;;;7388634;19;20139;-74
2023/01/23 07:10:12;;;;;;;14.23;8.97;;;4.20;99.90;;;;;;7387004;19;20161;-75
2023/01/23 07:12:39;;;;;;;12.43;8.00;;;4.30;99.90;;;;;;7392558;19;20147;-75
2023/01/23 07:15:06;;;;;;;12.33;8.03;;;4.30;99.90;;;;;;7389610;19;20146;-74
2023/01/23 07:17:31;;;;;;;14.43;8.93;;;4.30;99.90;;;;;;7390901;19;20139;-74
2023/01/23 07:19:58;;;;;;;11.73;8.37;;;4.30;99.90;;;;;;7391960;19;20511;-75
2023/01/23 07:22:24;;;;;;;14.00;8.53;;;4.40;99.90;;;;;;7393169;19;20142;-74
2023/01/23 07:24:50;;;;;;;13.37;8.13;;;4.30;99.90;;;;;;7389700;19;20144;-74
2023/01/23 07:27:15;;;;;;;16.70;9.37;;;4.30;99.90;;;;;;7391041;19;20143;-74
2023/01/23 07:29:43;;;;;;;12.90;8.57;;;4.30;99.90;;;;;;7389839;19;20158;-76
2023/01/23 07:32:09;;;;;;;14.13;8.57;;;4.30;99.90;;;;;;7393774;19;20148;-74
2023/01/23 07:34:35;;;;;;;11.13;7.13;;;4.30;99.90;;;;;;7393329;19;20139;-75
2023/01/23 07:37:01;;;;;;;13.13;7.90;;;4.30;99.90;;;;;;7390320;19;20126;-76
2023/01/23 07:39:26;;;;;;;13.50;8.20;;;4.40;99.90;;;;;;7390664;19;20127;-74
2023/01/23 07:41:52;;;;;;;12.20;8.50;;;4.40;99.90;;;;;;7391608;19;20139;-74
2023/01/23 07:44:21;;;;;;;14.17;8.70;;;4.40;99.90;;;;;;7389542;19;20153;-75
2023/01/23 07:46:48;;;;;;;12.40;8.23;;;4.40;99.90;;;;;;7387206;19;20158;-75
2023/01/23 07:49:14;;;;;;;14.97;8.50;;;4.30;99.90;;;;;;7389005;19;20151;-74
2023/01/23 07:51:40;;;;;;;13.87;8.90;;;4.40;99.90;;;;;;7387757;19;20148;-75
2023/01/23 07:54:06;;;;;;;14.87;9.00;;;4.30;99.90;;;;;;7390319;19;20138;-73
2023/01/23 07:56:32;;;;;;;15.63;9.10;;;4.30;99.90;;;;;;7390185;19;20134;-76
2023/01/23 07:58:59;;;;;;;13.93;8.83;;;4.30;99.90;;;;;;7391307;19;20171;-75
2023/01/23 08:01:25;;;;;;;15.27;9.17;;;4.30;99.90;;;;;;7380742;19;20190;-75
2023/01/23 08:03:52;;;;;;;15.10;9.13;;;4.30;99.90;;;;;;7390647;19;20769;-73
2023/01/23 08:06:19;;;;;;;15.47;9.17;;;4.40;99.90;;;;;;7397233;19;20142;-75
2023/01/23 08:08:48;;;;;;;14.17;8.63;;;4.30;99.90;;;;;;7388060;19;20150;-75
2023/01/23 08:11:14;;;;;;;17.20;9.20;;;4.40;99.90;;;;;;7392288;19;20226;-75
2023/01/23 08:13:40;;;;;;;16.57;9.73;;;4.50;99.90;;;;;;7388516;19;20572;-75
2023/01/23 08:16:06;;;;;;;13.50;8.20;;;4.50;99.90;;;;;;7387341;19;20142;-74
2023/01/23 08:18:33;;;;;;;15.10;9.00;;;4.50;99.90;;;;;;7386668;19;20126;-75
2023/01/23 08:21:01;;;;;;;16.40;10.17;;;4.50;99.90;;;;;;7391547;19;20142;-74
2023/01/23 08:23:30;;;;;;;14.87;9.03;;;4.50;99.90;;;;;;7398039;19;20733;-78
2023/01/23 08:26:01;;;;;;;14.77;9.10;;;4.50;99.90;;;;;;7392310;19;20587;-75
2023/01/23 08:28:27;;;;;;;16.33;8.67;;;4.50;99.90;;;;;;7383651;19;20145;-75
2023/01/23 08:30:53;;;;;;;16.17;10.40;;;4.50;99.90;;;;;;7387510;19;20127;-75
2023/01/23 08:33:20;;;;;;;14.87;9.03;;;4.40;99.90;;;;;;7387799;19;20122;-76
2023/01/23 08:35:54;;;;;;;16.13;9.27;;;4.40;99.90;;;;;;7387139;19;20134;-72
2023/01/23 08:38:21;;;;;;;17.53;9.77;;;4.30;99.90;;;;;;7389952;19;20158;-76
2023/01/23 08:40:48;;;;;;;14.73;8.90;;;4.40;99.90;;;;;;7386979;19;20142;-73
2023/01/23 08:43:16;;;;;;;14.60;8.63;;;4.40;99.90;;;;;;7384767;19;20248;-74
2023/01/23 08:45:52;;;;;;;16.30;9.57;;;4.40;99.90;;;;;;7388675;19;20161;-75
2023/01/23 08:48:18;;;;;;;15.20;9.07;;;4.50;99.90;;;;;;7396644;19;20130;-75
2023/01/23 08:50:44;;;;;;;15.63;9.50;;;4.50;99.90;;;;;;7391620;19;20186;-74
2023/01/23 08:53:11;;;;;;;15.57;9.80;;;4.60;99.90;;;;;;7387674;19;20724;-75
2023/01/23 08:55:37;;;;;;;15.53;9.57;;;4.50;99.90;;;;;;7385840;19;20150;-73
2023/01/23 08:58:08;;;;;;;14.80;8.70;;;4.50;99.90;;;;;;7389131;19;20130;-75
2023/01/23 09:00:34;;;;;;;13.60;8.43;;;4.50;99.90;;;;;;7387277;19;20638;-73
2023/01/23 09:03:01;;;;;;;15.30;8.83;;;4.50;99.90;;;;;;7384718;19;20141;-73
2023/01/23 09:05:28;;;;;;;16.93;8.90;;;4.50;99.90;;;;;;7390212;19;20169;-74
2023/01/23 09:07:55;;;;;;;13.80;8.57;;;4.50;99.90;;;;;;7393046;19;20138;-74
2023/01/23 09:10:21;;;;;;;17.83;9.33;;;4.50;99.90;;;;;;7392162;19;20726;-75
2023/01/23 09:12:50;;;;;;;13.63;8.43;;;4.60;99.90;;;;;;7392133;19;20138;-74
2023/01/23 09:15:16;;;;;;;14.10;8.47;;;4.60;99.90;;;;;;7393508;19;20142;-75
2023/01/23 09:17:42;;;;;;;13.50;8.00;;;4.50;99.90;;;;;;7393657;19;20631;-74
2023/01/23 09:20:08;;;;;;;12.33;7.27;;;4.60;99.90;;;;;;7395187;19;20131;-75
2023/01/23 09:22:34;;;;;;;11.37;7.40;;;4.40;99.90;;;;;;7393648;19;20246;-75
2023/01/23 09:25:00;;;;;;;11.70;7.50;;;4.40;99.90;;;;;;7393209;19;20143;-75
2023/01/23 09:27:26;;;;;;;11.07;7.57;;;4.40;99.90;;;;;;7394165;19;20159;-74
2023/01/23 09:29:53;;;;;;;12.40;7.40;;;4.40;99.90;;;;;;7395031;19;21004;-74
2023/01/23 09:32:19;;;;;;;12.80;7.80;;;4.50;99.90;;;;;;7393212;19;20131;-76
2023/01/23 09:34:47;;;;;;;11.07;6.67;;;4.50;99.90;;;;;;7391614;19;20480;-74
2023/01/23 09:37:14;;;;;;;15.67;7.37;;;4.50;99.90;;;;;;7393124;19;20131;-76
2023/01/23 09:39:46;;;;;;;12.53;7.43;;;4.50;99.90;;;;;;7392794;19;20142;-73
2023/01/23 09:42:23;;;;;;;10.23;7.23;;;4.50;99.90;;;;;;7387362;19;20206;-75
2023/01/23 09:44:55;;;;;;;11.77;7.23;;;4.60;99.90;;;;;;7384587;19;20131;-75
2023/01/23 09:47:36;;;;;;;10.97;6.43;;;4.50;99.90;;;;;;7393224;19;20175;-74
2023/01/23 09:50:37;;;;;;;10.63;6.97;;;4.50;99.90;;;;;;7393777;19;20142;-75
2023/01/23 09:53:17;;;;;;;11.47;6.60;;;4.40;99.90;;;;;;7394447;19;20130;-74
2023/01/23 09:55:48;;;;;;;10.70;6.70;;;4.40;99.90;;;;;;7386322;19;20127;-75
2023/01/23 09:58:27;;;;;;;12.03;7.10;;;4.40;99.90;;;;;;7392247;19;20154;-74
2023/01/23 10:00:53;;;;;;;10.17;5.97;;;4.50;99.90;;;;;;7390835;19;20194;-75
2023/01/23 10:03:23;;;;;;;10.00;6.33;;;4.50;99.90;;;;;;7391337;19;20146;-74
2023/01/23 10:05:49;;;;;;;10.63;6.60;;;4.50;99.90;;;;;;7390975;19;20182;-73
2023/01/23 10:08:33;;;;;;;11.83;6.80;;;4.60;99.90;;;;;;7392000;19;20711;-74
2023/01/23 10:11:23;;;;;;;9.13;6.17;;;4.60;99.90;;;;;;7392544;19;20149;-76
2023/01/23 10:14:21;;;;;;;10.80;6.60;;;4.50;99.90;;;;;;7391703;19;20144;-74
2023/01/23 10:17:10;;;;;;;11.50;6.53;;;4.40;99.90;;;;;;7390684;19;20162;-74
2023/01/23 10:20:10;;;;;;;13.03;6.50;;;4.40;99.90;;;;;;7390126;19;20143;-72
2023/01/23 10:22:46;;;;;;;13.30;6.50;;;4.50;99.90;;;;;;7391563;19;20139;-74
2023/01/23 10:25:34;;;;;;;10.40;6.43;;;4.50;99.90;;;;;;7386611;19;20163;-74
2023/01/23 10:28:23;;;;;;;11.00;6.60;;;4.60;99.90;;;;;;7386627;19;20545;-72
2023/01/23 10:30:54;;;;;;;12.33;6.70;;;4.60;99.90;;;;;;7393336;19;20130;-73
2023/01/23 10:33:37;;;;;;;10.43;6.47;;;4.70;99.90;;;;;;7386968;19;20150;-73
2023/01/23 10:36:16;;;;;;;10.87;6.80;;;4.80;99.90;;;;;;7389927;19;20145;-74
2023/01/23 10:38:53;;;;;;;12.27;7.60;;;4.90;99.90;;;;;;7389976;19;20654;-74
2023/01/23 10:41:20;;;;;;;10.40;6.40;;;4.80;99.90;;;;;;7393022;19;20481;-74
2023/01/23 10:43:49;;;;;;;13.10;6.80;;;4.80;99.90;;;;;;7396099;19;20146;-74
2023/01/23 10:46:28;;;;;;;10.90;6.90;;;4.80;99.90;;;;;;7391341;19;20155;-73
2023/01/23 10:48:54;;;;;;;10.27;6.60;;;4.70;99.90;;;;;;7390463;19;20138;-74
2023/01/23 10:51:30;;;;;;;12.17;7.33;;;4.90;99.90;;;;;;7388563;19;20134;-75
2023/01/23 10:54:09;;;;;;;10.87;6.70;;;4.80;99.90;;;;;;7392972;19;20190;-73
2023/01/23 10:56:50;;;;;;;8.80;5.80;;;4.70;99.90;;;;;;7390955;19;20158;-73
2023/01/23 10:59:27;;;;;;;11.70;7.50;;;4.70;99.90;;;;;;7394073;19;20139;-73
2023/01/23 11:02:15;;;;;;;11.97;6.80;;;4.70;99.90;;;;;;7391118;19;20158;-75
2023/01/23 11:04:42;;;;;;;12.63;7.47;;;4.80;99.90;;;;;;7393457;19;20133;-73
2023/01/23 11:07:18;;;;;;;12.63;6.93;;;4.70;99.90;;;;;;7391032;19;20151;-73
2023/01/23 11:09:48;;;;;;;11.17;6.93;;;4.80;99.90;;;;;;7387051;19;20500;-74
2023/01/23 11:12:24;;;;;;;12.67;8.10;;;4.80;99.90;;;;;;7390890;19;20155;-72
2023/01/23 11:14:51;;;;;;;13.37;7.47;;;4.70;99.90;;;;;;7386676;19;20150;-75
2023/01/23 11:17:19;;;;;;;11.00;6.97;;;4.70;99.90;;;;;;7397595;19;20135;-74
2023/01/23 11:19:48;;;;;;;11.17;6.63;;;4.80;99.90;;;;;;7395798;19;20582;-73
2023/01/23 11:22:28;;;;;;;11.40;7.10;;;4.80;99.90;;;;;;7391541;19;20145;-74
2023/01/23 11:24:55;;;;;;;11.50;7.37;;;4.70;99.90;;;;;;7389613;19;20166;-74
2023/01/23 11:27:25;;;;;;;12.30;7.13;;;4.70;99.90;;;;;;7389366;19;20136;-74
2023/01/23 11:30:12;;;;;;;13.73;7.97;;;4.70;99.90;;;;;;7389111;19;20147;-73
2023/01/23 11:32:58;;;;;;;11.00;6.87;;;4.70;99.90;;;;;;7385767;19;20141;-74
2023/01/23 11:35:35;;;;;;;11.47;6.57;;;4.60;99.90;;;;;;7384637;19;20236;-75
2023/01/23 11:38:03;;;;;;;13.80;7.47;;;4.60;99.90;;;;;;7384848;19;20623;-74
2023/01/23 11:40:31;;;;;;;13.60;6.93;;;4.60;99.90;;;;;;7382691;19;20150;-75
2023/01/23 11:42:57;;;;;;;12.67;7.20;;;4.60;99.90;;;;;;7383410;19;20134;-74
2023/01/23 11:45:42;;;;;;;11.67;7.63;;;4.50;99.90;;;;;;7392484;19;20198;-75
2023/01/23 11:48:29;;;;;;;13.73;8.47;;;4.70;99.90;;;;;;7388627;19;20141;-74
2023/01/23 11:51:00;;;;;;;12.90;7.80;;;4.70;99.90;;;;;;7390456;19;20502;-74
2023/01/23 11:53:50;;;;;;;13.80;7.93;;;4.70;99.90;;;;;;7389862;19;20135;-75
2023/01/23 11:56:30;;;;;;;12.17;6.80;;;4.70;99.90;;;;;;7384447;19;20467;-73
2023/01/23 11:59:13;;;;;;;12.40;7.70;;;4.70;99.90;;;;;;7389139;19;20150;-75
2023/01/23 12:01:47;;;;;;;12.73;7.23;;;4.80;99.90;;;;;;7386007;19;20154;-75
2023/01/23 12:04:33;;;;;;;13.43;7.63;;;4.70;99.90;;;;;;7390046;19;20142;-73
2023/01/23 12:07:20;;;;;;;10.20;7.03;;;4.60;99.90;;;;;;7393817;19;20520;-73
2023/01/23 12:10:10;;;;;;;13.83;8.53;;;4.60;99.90;;;;;;7395843;19;20131;-75
2023/01/23 12:13:03;;;;;;;11.47;7.93;;;4.70;99.90;;;;;;7388118;19;20604;-74
2023/01/23 12:16:03;;;;;;;14.30;7.53;;;4.60;99.90;;;;;;7385069;19;20146;-75
2023/01/23 12:18:46;;;;;;;13.23;7.50;;;4.80;99.90;;;;;;7389705;19;20150;-75
2023/01/23 12:21:27;;;;;;;11.83;7.03;;;4.80;99.90;;;;;;7396892;19;20139;-76
2023/01/23 12:24:16;;;;;;;13.37;7.80;;;4.90;99.90;;;;;;7400623;19;20126;-75
2023/01/23 12:27:10;;;;;;;14.70;8.30;;;4.90;99.90;;;;;;7389554;19;20172;-79
2023/01/23 12:29:50;;;;;;;12.13;7.23;;;4.90;99.90;;;;;;7387026;19;20235;-74
2023/01/23 12:32:50;;;;;;;13.43;7.97;;;4.90;99.90;;;;;;7389203;19;20193;-76
2023/01/23 12:35:45;;;;;;;12.33;8.13;;;4.90;99.90;;;;;;7386507;19;20142;-76
2023/01/23 12:38:17;;;;;;;13.70;7.80;;;4.90;99.90;;;;;;7386100;19;20150;-77
2023/01/23 12:40:49;;;;;;;15.77;8.50;;;4.90;99.90;;;;;;7388095;19;20198;-76
2023/01/23 12:43:20;;;;;;;12.77;7.63;;;5.00;99.90;;;;;;7388598;19;20126;-74
2023/01/23 12:46:02;;;;;;;11.60;7.30;;;4.90;99.90;;;;;;7386154;19;20150;-75
2023/01/23 12:48:38;;;;;;;10.93;7.13;;;5.10;99.90;;;;;;7392593;19;20170;-77
2023/01/23 12:51:09;;;;;;;14.20;7.87;;;5.00;99.90;;;;;;7386897;19;20233;-76
2023/01/23 12:53:40;;;;;;;14.20;8.70;;;5.10;99.90;;;;;;7389762;19;20139;-76
2023/01/23 12:56:12;;;;;;;14.57;8.33;;;5.10;99.90;;;;;;7385240;19;20211;-75
2023/01/23 12:58:47;;;;;;;12.50;7.53;;;5.10;99.90;;;;;;7388598;19;20138;-75
2023/01/23 13:01:49;;;;;;;11.20;7.17;;;5.10;99.90;;;;;;7386749;19;20149;-74
2023/01/23 13:04:23;;;;;;;13.97;8.00;;;5.10;99.90;;;;;;7389264;19;20155;-76
2023/01/23 13:07:19;;;;;;;12.45;7.70;;;5.10;99.90;;;;;;7390739;19;20392;-77
2023/01/23 13:10:10;;;;;;;12.53;7.63;;;5.10;99.90;;;;;;7387816;19;20147;-76
2023/01/23 13:12:36;;;;;;;14.40;7.60;;;5.10;99.90;;;;;;7394100;19;20131;-79